Favola — IBFH — position and weather

sailwx.info

Track history (hours):
 
Tides and Currents Weather Stations Pressure Air Temp Water Temp Dewpoint Dewpoint Depression Visibility Wind Speed Wind Dir Waves Ship Positions

Favola

Last reported at 2014-Sep-22 04:11 UTC. Time now 2014-Sep-22 08:15 UTC.
Position N 40°57' E 001°20'.

Length 180 m; draft 8.2 m.

Type: Ship (hazmat cat A). MMSI: 247069800.

Date/timePositionNaut miles runAvg speedWind from/ knotsBaromVisibWave heightAir tempDewpointWater temp
2014-Sep-22 04:11N 40°57' E 001°20'1 1.3
2014-Sep-22 03:32N 40°57' E 001°21'1 1.3
2014-Sep-22 02:25N 40°58' E 001°23'1 1.2
2014-Sep-22 01:20N 40°58' E 001°24'1 1.2
2014-Sep-22 00:32N 40°58' E 001°25'1 1.2
2014-Sep-21 23:32N 40°59' E 001°27'3 2.8
2014-Sep-21 22:28N 41°00' E 001°23'9 7.5
2014-Sep-21 21:13N 41°06' E 001°13'0 0.0
2014-Sep-21 20:19N 41°06' E 001°13'0 0.0
2014-Sep-21 19:13N 41°06' E 001°13'0 0.0
2014-Sep-21 17:25N 41°06' E 001°13'0 0.0
2014-Sep-21 16:28N 41°06' E 001°13'0 0.0
2014-Sep-21 15:31N 41°06' E 001°13'0 0.0
2014-Sep-21 14:31N 41°06' E 001°13'0 0.0
2014-Sep-21 11:31N 41°06' E 001°13'0 0.0
2014-Sep-21 09:07N 41°06' E 001°13'0 0.0
2014-Sep-21 07:19N 41°06' E 001°13'0 0.0
2014-Sep-21 06:25N 41°06' E 001°13'0 0.0
2014-Sep-21 05:19N 41°06' E 001°13'0 0.0
2014-Sep-21 04:31N 41°06' E 001°13'0 0.0
2014-Sep-21 03:25N 41°06' E 001°13'0 0.0
2014-Sep-21 02:28N 41°06' E 001°13'0 0.0
2014-Sep-21 01:10N 41°06' E 001°13'0 0.0
2014-Sep-21 00:25N 41°06' E 001°13'0 0.0
2014-Sep-20 23:19N 41°06' E 001°13'0 0.0
2014-Sep-20 22:28N 41°06' E 001°13'0 0.0
2014-Sep-20 21:31N 41°06' E 001°13'0 0.0
2014-Sep-20 20:25N 41°06' E 001°13'0 0.0
2014-Sep-20 19:28N 41°06' E 001°13'0 0.0
2014-Sep-20 16:25N 41°06' E 001°13'0 0.0
2014-Sep-20 14:30N 41°06' E 001°13'0 0.0
2014-Sep-20 13:27N 41°06' E 001°13'1 0.8
2014-Sep-20 12:26N 41°05' E 001°13'3 3.6
2014-Sep-20 11:32N 41°02' E 001°15'7 5.9
2014-Sep-20 10:17N 40°60' E 001°24'811.2
2014-Sep-20 09:33N 40°57' E 001°35'1211.6
2014-Sep-20 08:33N 40°53' E 001°49'1211.9
2014-Sep-20 07:33N 40°49' E 002°04'1211.8
2014-Sep-20 06:33N 40°45' E 002°18'1211.8
2014-Sep-20 05:33N 40°40' E 002°33'1211.8
2014-Sep-20 04:33N 40°36' E 002°47'1211.6
2014-Sep-20 03:33N 40°32' E 003°01'1111.4
2014-Sep-20 02:33N 40°28' E 003°15'4911.5
2014-Sep-19 22:20N 40°10' E 004°15'1012.1
2014-Sep-19 21:33N 40°06' E 004°26'1613.1
2014-Sep-19 20:21N 40°00' E 004°45'910.9
2014-Sep-19 19:32N 39°56' E 004°56'7111.9
2014-Sep-19 13:33N 39°27' E 006°20'1411.7
2014-Sep-19 12:21N 39°21' E 006°37'1112.0
2014-Sep-19 11:24N 39°16' E 006°50'3512.3
2014-Sep-19 08:31N 39°03' E 007°32'1312.5
2014-Sep-19 07:27N 38°58' E 007°48'1612.0
2014-Sep-19 06:08N 38°50' E 008°06'811.9
2014-Sep-19 05:26N 38°46' E 008°15'1111.9
2014-Sep-19 04:29N 38°42' E 008°29'1112.0
2014-Sep-19 03:33N 38°40' E 008°43'1212.3
2014-Sep-19 02:33N 38°37' E 008°58'1212.3
2014-Sep-19 01:33N 38°34' E 009°13'1312.1
2014-Sep-19 00:27N 38°30' E 009°30'1112.1
2014-Sep-18 23:33N 38°27' E 009°43'1312.3
2014-Sep-18 22:31N 38°24' E 009°59'19111.8
2014-Sep-18 06:15N 37°03' E 013°38'812.1
2014-Sep-18 05:33N 36°59' E 013°48'1212.1
2014-Sep-18 04:33N 36°53' E 014°01'1211.8
2014-Sep-18 03:33N 36°48' E 014°14'1212.2
2014-Sep-18 02:33N 36°42' E 014°27'1312.1
2014-Sep-18 01:27N 36°37' E 014°42'  
2014-Sep-13 16:07N 36°30' E 015°11'1610.2
2014-Sep-13 14:33N 36°17' E 015°01'1010.1
2014-Sep-13 13:33N 36°10' E 014°52'1010.3
2014-Sep-13 12:33N 36°02' E 014°44'8 7.1
2014-Sep-13 11:28N 35°56' E 014°38'1 1.5
2014-Sep-13 10:33N 35°56' E 014°40'7 6.6
2014-Sep-13 09:33N 35°57' E 014°48'6 5.6
2014-Sep-13 08:31N 35°56' E 014°55'0 0.0
2014-Sep-13 06:28N 35°56' E 014°55'0 0.0
2014-Sep-13 04:06N 35°56' E 014°55'0 0.0
2014-Sep-13 03:11N 35°56' E 014°55'0 0.0
2014-Sep-13 02:32N 35°56' E 014°55'0 0.0
2014-Sep-13 01:34N 35°56' E 014°55'0 0.0
2014-Sep-13 00:34N 35°56' E 014°55'0 0.0
2014-Sep-12 23:28N 35°56' E 014°55'0 0.0
2014-Sep-12 22:04N 35°56' E 014°55'0 0.0
2014-Sep-12 21:25N 35°56' E 014°55'0 0.0
2014-Sep-12 19:27N 35°56' E 014°55'0 0.0
2014-Sep-12 18:31N 35°56' E 014°55'0 0.0
2014-Sep-12 16:16N 35°56' E 014°55'0 0.0
2014-Sep-12 15:33N 35°56' E 014°55'0 0.0
2014-Sep-12 14:33N 35°56' E 014°55'0 0.0
2014-Sep-12 13:33N 35°56' E 014°55'0 0.0
2014-Sep-12 12:33N 35°56' E 014°55'0 0.3
2014-Sep-12 11:33N 35°56' E 014°55'4 3.0
2014-Sep-12 10:19N 35°58' E 014°59'4 2.1
2014-Sep-12 08:33N 36°02' E 014°59'4 4.3
2014-Sep-12 07:33N 36°01' E 014°54'3 3.2
2014-Sep-12 06:33N 36°00' E 014°50'5 5.4
2014-Sep-12 05:33N 35°58' E 014°44'5 5.5
2014-Sep-12 04:34N 35°56' E 014°38'  
Track history (hours):
 
Tides and Currents Weather Stations Pressure Air Temp Water Temp Dewpoint Dewpoint Depression Visibility Wind Speed Wind Dir Waves Ship Positions

Favola

Last reported at 2014-Sep-22 04:11 UTC. Time now 2014-Sep-22 08:15 UTC.
Position N 40°57' E 001°20'.

Length 180 m; draft 8.2 m.

Type: Ship (hazmat cat A). MMSI: 247069800.

Date/timePositionNaut miles runAvg speedWind from/ knotsBaromVisibWave heightAir tempDewpointWater temp
2014-Sep-22 04:11N 40°57' E 001°20'1 1.3
2014-Sep-22 03:32N 40°57' E 001°21'1 1.3
2014-Sep-22 02:25N 40°58' E 001°23'1 1.2
2014-Sep-22 01:20N 40°58' E 001°24'1 1.2
2014-Sep-22 00:32N 40°58' E 001°25'1 1.2
2014-Sep-21 23:32N 40°59' E 001°27'3 2.8
2014-Sep-21 22:28N 41°00' E 001°23'9 7.5
2014-Sep-21 21:13N 41°06' E 001°13'0 0.0
2014-Sep-21 20:19N 41°06' E 001°13'0 0.0
2014-Sep-21 19:13N 41°06' E 001°13'0 0.0
2014-Sep-21 17:25N 41°06' E 001°13'0 0.0
2014-Sep-21 16:28N 41°06' E 001°13'0 0.0
2014-Sep-21 15:31N 41°06' E 001°13'0 0.0
2014-Sep-21 14:31N 41°06' E 001°13'0 0.0
2014-Sep-21 11:31N 41°06' E 001°13'0 0.0
2014-Sep-21 09:07N 41°06' E 001°13'0 0.0
2014-Sep-21 07:19N 41°06' E 001°13'0 0.0
2014-Sep-21 06:25N 41°06' E 001°13'0 0.0
2014-Sep-21 05:19N 41°06' E 001°13'0 0.0
2014-Sep-21 04:31N 41°06' E 001°13'0 0.0
2014-Sep-21 03:25N 41°06' E 001°13'0 0.0
2014-Sep-21 02:28N 41°06' E 001°13'0 0.0
2014-Sep-21 01:10N 41°06' E 001°13'0 0.0
2014-Sep-21 00:25N 41°06' E 001°13'0 0.0
2014-Sep-20 23:19N 41°06' E 001°13'0 0.0
2014-Sep-20 22:28N 41°06' E 001°13'0 0.0
2014-Sep-20 21:31N 41°06' E 001°13'0 0.0
2014-Sep-20 20:25N 41°06' E 001°13'0 0.0
2014-Sep-20 19:28N 41°06' E 001°13'0 0.0
2014-Sep-20 16:25N 41°06' E 001°13'0 0.0
2014-Sep-20 14:30N 41°06' E 001°13'0 0.0
2014-Sep-20 13:27N 41°06' E 001°13'1 0.8
2014-Sep-20 12:26N 41°05' E 001°13'3 3.6
2014-Sep-20 11:32N 41°02' E 001°15'7 5.9
2014-Sep-20 10:17N 40°60' E 001°24'811.2
2014-Sep-20 09:33N 40°57' E 001°35'1211.6
2014-Sep-20 08:33N 40°53' E 001°49'1211.9
2014-Sep-20 07:33N 40°49' E 002°04'1211.8
2014-Sep-20 06:33N 40°45' E 002°18'1211.8
2014-Sep-20 05:33N 40°40' E 002°33'1211.8
2014-Sep-20 04:33N 40°36' E 002°47'1211.6
2014-Sep-20 03:33N 40°32' E 003°01'1111.4
2014-Sep-20 02:33N 40°28' E 003°15'4911.5
2014-Sep-19 22:20N 40°10' E 004°15'1012.1
2014-Sep-19 21:33N 40°06' E 004°26'1613.1
2014-Sep-19 20:21N 40°00' E 004°45'910.9
2014-Sep-19 19:32N 39°56' E 004°56'7111.9
2014-Sep-19 13:33N 39°27' E 006°20'1411.7
2014-Sep-19 12:21N 39°21' E 006°37'1112.0
2014-Sep-19 11:24N 39°16' E 006°50'3512.3
2014-Sep-19 08:31N 39°03' E 007°32'1312.5
2014-Sep-19 07:27N 38°58' E 007°48'1612.0
2014-Sep-19 06:08N 38°50' E 008°06'811.9
2014-Sep-19 05:26N 38°46' E 008°15'1111.9
2014-Sep-19 04:29N 38°42' E 008°29'1112.0
2014-Sep-19 03:33N 38°40' E 008°43'1212.3
2014-Sep-19 02:33N 38°37' E 008°58'1212.3
2014-Sep-19 01:33N 38°34' E 009°13'1312.1
2014-Sep-19 00:27N 38°30' E 009°30'1112.1
2014-Sep-18 23:33N 38°27' E 009°43'1312.3
2014-Sep-18 22:31N 38°24' E 009°59'19111.8
2014-Sep-18 06:15N 37°03' E 013°38'812.1
2014-Sep-18 05:33N 36°59' E 013°48'1212.1
2014-Sep-18 04:33N 36°53' E 014°01'1211.8
2014-Sep-18 03:33N 36°48' E 014°14'1212.2
2014-Sep-18 02:33N 36°42' E 014°27'1312.1
2014-Sep-18 01:27N 36°37' E 014°42'  
2014-Sep-13 16:07N 36°30' E 015°11'1610.2
2014-Sep-13 14:33N 36°17' E 015°01'1010.1
2014-Sep-13 13:33N 36°10' E 014°52'1010.3
2014-Sep-13 12:33N 36°02' E 014°44'8 7.1
2014-Sep-13 11:28N 35°56' E 014°38'1 1.5
2014-Sep-13 10:33N 35°56' E 014°40'7 6.6
2014-Sep-13 09:33N 35°57' E 014°48'6 5.6
2014-Sep-13 08:31N 35°56' E 014°55'0 0.0
2014-Sep-13 06:28N 35°56' E 014°55'0 0.0
2014-Sep-13 04:06N 35°56' E 014°55'0 0.0
2014-Sep-13 03:11N 35°56' E 014°55'0 0.0
2014-Sep-13 02:32N 35°56' E 014°55'0 0.0
2014-Sep-13 01:34N 35°56' E 014°55'0 0.0
2014-Sep-13 00:34N 35°56' E 014°55'0 0.0
2014-Sep-12 23:28N 35°56' E 014°55'0 0.0
2014-Sep-12 22:04N 35°56' E 014°55'0 0.0
2014-Sep-12 21:25N 35°56' E 014°55'0 0.0
2014-Sep-12 19:27N 35°56' E 014°55'0 0.0
2014-Sep-12 18:31N 35°56' E 014°55'0 0.0
2014-Sep-12 16:16N 35°56' E 014°55'0 0.0
2014-Sep-12 15:33N 35°56' E 014°55'0 0.0
2014-Sep-12 14:33N 35°56' E 014°55'0 0.0
2014-Sep-12 13:33N 35°56' E 014°55'0 0.0
2014-Sep-12 12:33N 35°56' E 014°55'0 0.3
2014-Sep-12 11:33N 35°56' E 014°55'4 3.0
2014-Sep-12 10:19N 35°58' E 014°59'4 2.1
2014-Sep-12 08:33N 36°02' E 014°59'4 4.3
2014-Sep-12 07:33N 36°01' E 014°54'3 3.2
2014-Sep-12 06:33N 36°00' E 014°50'5 5.4
2014-Sep-12 05:33N 35°58' E 014°44'5 5.5
2014-Sep-12 04:34N 35°56' E 014°38'  

Dump ship's entire track history